Charter Quote
Worldwide +1-877-727-2538 Call
Select Language Lang
SAFETY RELIABILITY EXPERIENCE

Private Jet Charter Services - Golmud Airport (ZLGM)

Paramount Business Jets offers private jet charter flights and luxury airliner charters to and from Golmud Airport.

AIRPORT INFORMATION
ICAOZLGM
IATAGOQ
LOCATIONGolmud, China
FACILITY TYPEAIRPORT

At Paramount Business Jets you can hire chartered private jets to and from Golmud Airport with as little as 4 hours of notice. All flights booked via Paramount Business Jets are operated by certified direct air carriers that meet and exceed the FAA part 135 and 121 protocol or a foreign equivalent safety authority. Furthermore, Paramount Business Jets subscribes to ARGUS for their third party safety checks of operators, aircraft, and crews prior each and every flight to and from Golmud Airport and worldwide.

  • Quote a trip using Golmud Airport or call us 24/7 - 365 days a year at +1-877-727-2538.
Questions? Call +1-877-727-2538

METAR Weather Data at Golmud Airport, ZLGM, GOQ

STATIONZLGM
OBSERVEDMon Jul 11, 06:00 UTC
NOWMon Jul 22, 09:36 UTC
AGE70395:36 hr ago
WINDNNW at 7 mph
VISIBILITY16 miles
CLOUDSmostly cloudy
TEMP70°F (21°C)
DEWPT28°F (-2°C)
HUMIDITY21%
BAROMETER1023 hPa (30.21 in Hg)
METARZLGM 110600Z 33003MPS 260V010 9999 FEW046 BKN090 21/M02 Q1023 NOSIG

Call us on +1-877-727-2538 (24 Hours) to Hire a Private Jet or Get a Quick Quote.

Find Airports Near any Location

Processing
...